Time;durP1;ratioP1;P1;durP2;ratioP2;P2;SDS_P1;SDS_P2;PMS_P1;PMS_P2;Temp;Humidity;BMP_temperature;BMP_pressure;BME280_temperature;BME280_humidity;BME280_pressure;Samples;Min_cycle;Max_cycle;Signal;HPM_P1;HPM_P2
2024/02/23 00:00:54;;;;;;;6.53;1.17;;;5.20;99.90;;;;;;5068510;28;20050;-74
2024/02/23 00:03:20;;;;;;;9.30;1.48;;;5.20;99.90;;;;;;5066528;28;20135;-74
2024/02/23 00:05:45;;;;;;;5.22;1.02;;;5.20;99.90;;;;;;5048276;28;20439;-74
2024/02/23 00:08:11;;;;;;;6.05;1.20;;;5.20;99.90;;;;;;5068150;28;20147;-74
2024/02/23 00:10:40;;;;;;;5.85;1.08;;;5.20;99.90;;;;;;5067110;28;20032;-73
2024/02/23 00:13:06;;;;;;;7.28;1.15;;;5.20;99.90;;;;;;5064264;28;20569;-74
2024/02/23 00:15:35;;;;;;;6.63;1.30;;;5.20;99.90;;;;;;5066436;28;20048;-74
2024/02/23 00:18:03;;;;;;;6.38;1.48;;;5.20;99.90;;;;;;5051524;28;20131;-73
2024/02/23 00:20:32;;;;;;;8.02;1.13;;;5.20;99.90;;;;;;5064526;28;20048;-74
2024/02/23 00:22:58;;;;;;;6.18;0.90;;;5.20;99.90;;;;;;5058193;28;20371;-73
2024/02/23 00:25:24;;;;;;;6.15;1.40;;;5.20;99.90;;;;;;5065502;28;20039;-74
2024/02/23 00:27:50;;;;;;;5.13;0.90;;;5.20;99.90;;;;;;5046223;28;20174;-74
2024/02/23 00:30:15;;;;;;;6.07;0.98;;;5.20;99.90;;;;;;5063798;28;20139;-74
2024/02/23 00:32:41;;;;;;;3.67;0.70;;;5.10;99.90;;;;;;5063668;28;20097;-74
2024/02/23 00:35:07;;;;;;;5.07;0.63;;;5.10;99.90;;;;;;5047087;28;20488;-78
2024/02/23 00:37:35;;;;;;;1.85;0.40;;;5.00;99.90;;;;;;5063564;28;20048;-74
2024/02/23 00:40:05;;;;;;;4.68;0.88;;;5.00;99.90;;;;;;5054500;28;20500;-74
2024/02/23 00:42:31;;;;;;;3.40;0.77;;;4.80;99.90;;;;;;5047779;28;20438;-74
2024/02/23 00:44:59;;;;;;;3.28;0.70;;;4.70;99.90;;;;;;5050386;28;20052;-74
2024/02/23 00:47:26;;;;;;;1.55;0.50;;;4.50;99.90;;;;;;5052912;28;20044;-74
2024/02/23 00:49:52;;;;;;;1.70;0.40;;;4.40;99.90;;;;;;5038071;28;20044;-74
2024/02/23 00:52:18;;;;;;;1.25;0.20;;;4.30;99.90;;;;;;5054958;28;20386;-75
2024/02/23 00:54:44;;;;;;;2.60;0.40;;;4.20;99.90;;;;;;5053682;28;20045;-75
2024/02/23 00:57:11;;;;;;;1.42;0.40;;;4.00;99.90;;;;;;5044355;28;20056;-75
2024/02/23 00:59:36;;;;;;;1.65;0.30;;;3.90;99.90;;;;;;5053979;28;20058;-74
2024/02/23 01:02:02;;;;;;;0.85;0.20;;;3.90;99.90;;;;;;5053135;28;20416;-74
2024/02/23 01:04:28;;;;;;;4.97;0.60;;;3.80;99.90;;;;;;5049068;28;20393;-74
2024/02/23 01:06:54;;;;;;;2.22;0.45;;;3.80;99.90;;;;;;5036898;28;20058;-74
2024/02/23 01:09:23;;;;;;;2.35;0.55;;;3.90;99.90;;;;;;5040078;28;20127;-74
2024/02/23 01:11:49;;;;;;;1.67;0.50;;;3.80;99.90;;;;;;5050454;28;20040;-74
2024/02/23 01:14:15;;;;;;;1.88;0.50;;;3.80;99.90;;;;;;5044977;28;20045;-75
2024/02/23 01:16:41;;;;;;;2.35;0.70;;;3.90;99.90;;;;;;5058015;28;20041;-74
2024/02/23 01:19:07;;;;;;;1.38;0.60;;;3.80;99.90;;;;;;5051985;28;20039;-75
2024/02/23 01:21:33;;;;;;;2.10;0.77;;;3.90;99.90;;;;;;5035632;28;20492;-75
2024/02/23 01:24:00;;;;;;;3.38;1.25;;;3.90;99.90;;;;;;5052249;28;20132;-75
2024/02/23 01:26:27;;;;;;;5.22;1.65;;;4.00;99.90;;;;;;5058512;28;20062;-75
2024/02/23 01:28:54;;;;;;;6.47;2.05;;;4.00;99.90;;;;;;5035366;28;20424;-75
2024/02/23 01:31:19;;;;;;;5.93;2.47;;;4.10;99.90;;;;;;5045746;28;20036;-74
2024/02/23 01:33:45;;;;;;;7.63;2.75;;;4.10;99.90;;;;;;5045882;28;20043;-75
2024/02/23 01:36:11;;;;;;;9.50;3.72;;;4.20;99.90;;;;;;5053903;28;20123;-75
2024/02/23 01:38:37;;;;;;;8.75;3.78;;;4.30;99.90;;;;;;5038907;28;20121;-75
2024/02/23 01:41:03;;;;;;;8.50;3.38;;;4.30;99.90;;;;;;5036629;28;20044;-75
2024/02/23 01:43:29;;;;;;;10.13;3.08;;;4.40;99.90;;;;;;5056491;28;20500;-75
2024/02/23 01:45:55;;;;;;;9.65;2.65;;;4.40;99.90;;;;;;5053223;28;20123;-75
2024/02/23 01:48:21;;;;;;;8.05;2.67;;;4.40;99.90;;;;;;5040213;28;20067;-74
2024/02/23 01:50:47;;;;;;;7.05;2.90;;;4.40;99.90;;;;;;5061545;28;20324;-75
2024/02/23 01:53:13;;;;;;;10.27;2.63;;;4.50;99.90;;;;;;5037568;28;20057;-75
2024/02/23 01:55:43;;;;;;;7.18;2.60;;;4.50;99.90;;;;;;5040650;28;20098;-75
2024/02/23 01:58:09;;;;;;;8.65;2.95;;;4.50;99.90;;;;;;5038954;28;20647;-75
2024/02/23 02:00:36;;;;;;;10.18;3.15;;;4.60;99.90;;;;;;5051178;28;20043;-74
2024/02/23 02:03:05;;;;;;;9.05;2.80;;;4.60;99.90;;;;;;5053655;28;20044;-74
2024/02/23 02:05:34;;;;;;;12.60;3.58;;;4.60;99.90;;;;;;5065894;28;20048;-75
2024/02/23 02:08:00;;;;;;;10.10;3.50;;;4.70;99.90;;;;;;5053412;28;20041;-75
2024/02/23 02:10:27;;;;;;;10.43;3.17;;;4.70;99.90;;;;;;5047565;28;20052;-74
2024/02/23 02:12:52;;;;;;;13.68;3.30;;;4.80;99.90;;;;;;5037969;28;20496;-75
2024/02/23 02:15:18;;;;;;;11.13;3.20;;;4.80;99.90;;;;;;5059735;28;20281;-75
2024/02/23 02:17:44;;;;;;;10.60;3.25;;;4.80;99.90;;;;;;5045186;28;20040;-74
2024/02/23 02:20:13;;;;;;;13.50;3.50;;;4.80;99.90;;;;;;5059432;28;20048;-75
2024/02/23 02:22:39;;;;;;;17.08;4.00;;;4.90;99.90;;;;;;5046876;28;20044;-75
2024/02/23 02:25:06;;;;;;;13.93;3.50;;;4.90;99.90;;;;;;5032181;28;20044;-75
2024/02/23 02:27:36;;;;;;;12.70;3.72;;;4.90;99.90;;;;;;5049795;28;20423;-74
2024/02/23 02:30:05;;;;;;;15.35;3.72;;;4.90;99.90;;;;;;5049331;28;20056;-74
2024/02/23 02:32:30;;;;;;;13.07;3.63;;;4.90;99.90;;;;;;5059215;28;20519;-74
2024/02/23 02:34:56;;;;;;;12.50;4.03;;;5.00;99.90;;;;;;5038188;28;20040;-75
2024/02/23 02:37:22;;;;;;;18.33;3.90;;;5.00;99.90;;;;;;5038092;28;20225;-75
2024/02/23 02:39:48;;;;;;;12.85;3.60;;;5.00;99.90;;;;;;5048560;28;20040;-74
2024/02/23 02:42:14;;;;;;;14.45;4.10;;;5.10;99.90;;;;;;5047501;28;20617;-75
2024/02/23 02:44:39;;;;;;;11.18;3.72;;;5.10;99.90;;;;;;5060494;28;20369;-75
2024/02/23 02:47:05;;;;;;;13.68;3.70;;;5.10;99.90;;;;;;5048512;28;20064;-75
2024/02/23 02:49:31;;;;;;;19.65;4.30;;;5.00;99.90;;;;;;5044129;28;20047;-74
2024/02/23 02:51:57;;;;;;;17.42;4.30;;;5.10;99.90;;;;;;5068685;28;20122;-75
2024/02/23 02:54:23;;;;;;;18.30;3.88;;;5.10;99.90;;;;;;5047995;28;20156;-74
2024/02/23 02:56:50;;;;;;;11.35;3.17;;;5.10;99.90;;;;;;5044808;28;20613;-74
2024/02/23 02:59:18;;;;;;;14.77;3.28;;;5.10;99.90;;;;;;5066671;28;20048;-74
2024/02/23 03:01:43;;;;;;;13.98;2.90;;;5.20;99.90;;;;;;5063275;28;20071;-74
2024/02/23 03:04:09;;;;;;;11.45;2.60;;;5.20;99.90;;;;;;5043275;28;20535;-74
2024/02/23 03:06:35;;;;;;;10.82;2.85;;;5.30;99.90;;;;;;5051317;28;20047;-74
2024/02/23 03:09:04;;;;;;;11.30;2.60;;;5.30;99.90;;;;;;5060857;28;20036;-74
2024/02/23 03:11:31;;;;;;;13.63;3.10;;;5.30;99.90;;;;;;5043956;28;20492;-74
2024/02/23 03:13:56;;;;;;;12.07;2.88;;;5.30;99.90;;;;;;5064870;28;20048;-75
2024/02/23 03:16:30;;;;;;;9.32;2.47;;;5.30;99.90;;;;;;5047506;28;20515;-75
2024/02/23 03:18:56;;;;;;;11.63;2.83;;;5.30;99.90;;;;;;5039338;28;20121;-74
2024/02/23 03:21:21;;;;;;;11.07;2.72;;;5.30;99.90;;;;;;5059477;28;20574;-75
2024/02/23 03:23:47;;;;;;;11.68;2.60;;;5.30;99.90;;;;;;5061174;28;20040;-74
2024/02/23 03:26:13;;;;;;;14.70;3.03;;;5.20;99.90;;;;;;5052510;28;20260;-74
2024/02/23 03:28:39;;;;;;;12.43;3.05;;;5.20;99.90;;;;;;5048195;28;20040;-74
2024/02/23 03:31:05;;;;;;;11.05;2.70;;;5.20;99.90;;;;;;5061090;28;20036;-74
2024/02/23 03:33:30;;;;;;;13.77;2.83;;;5.10;99.90;;;;;;5053176;28;20036;-74
2024/02/23 03:35:58;;;;;;;10.02;2.67;;;5.10;99.90;;;;;;5059743;28;20056;-74
2024/02/23 03:38:24;;;;;;;15.73;3.03;;;5.10;99.90;;;;;;5056298;28;20048;-75
2024/02/23 03:40:49;;;;;;;14.68;3.63;;;5.10;99.90;;;;;;5049562;28;20048;-75
2024/02/23 03:43:15;;;;;;;10.93;2.63;;;5.10;99.90;;;;;;5040517;28;20275;-74
2024/02/23 03:45:41;;;;;;;13.73;3.00;;;5.10;99.90;;;;;;5058324;28;20051;-75
2024/02/23 03:48:07;;;;;;;11.43;2.70;;;5.10;99.90;;;;;;5068166;28;20070;-75
2024/02/23 03:50:33;;;;;;;17.65;3.08;;;5.10;99.90;;;;;;5055663;28;20033;-75
2024/02/23 03:52:58;;;;;;;12.00;2.70;;;5.10;99.90;;;;;;5060563;28;20040;-75
2024/02/23 03:55:24;;;;;;;16.05;3.10;;;5.20;99.90;;;;;;5055394;28;20048;-74
2024/02/23 03:57:50;;;;;;;13.60;3.50;;;5.20;99.90;;;;;;5052738;28;20044;-75
2024/02/23 04:00:17;;;;;;;11.20;2.80;;;5.20;99.90;;;;;;5062103;28;20503;-74
2024/02/23 04:02:43;;;;;;;12.10;2.83;;;5.20;99.90;;;;;;5055264;28;20044;-75
2024/02/23 04:05:09;;;;;;;12.30;2.70;;;5.30;99.90;;;;;;5037745;28;20051;-74
2024/02/23 04:07:34;;;;;;;10.40;2.70;;;5.30;99.90;;;;;;5044739;28;20407;-75
2024/02/23 04:10:00;;;;;;;11.93;2.83;;;5.30;99.90;;;;;;5048828;28;20045;-75
2024/02/23 04:12:26;;;;;;;8.75;2.35;;;5.20;99.90;;;;;;5074019;28;20131;-75
2024/02/23 04:14:52;;;;;;;12.70;2.40;;;5.30;99.90;;;;;;5047666;28;20210;-74
2024/02/23 04:17:18;;;;;;;10.30;2.42;;;5.30;99.90;;;;;;5055757;28;20652;-74
2024/02/23 04:19:44;;;;;;;9.30;2.38;;;5.20;99.90;;;;;;5059640;28;20104;-74
2024/02/23 04:22:10;;;;;;;10.00;2.10;;;5.20;99.90;;;;;;5067235;28;20040;-74
2024/02/23 04:24:40;;;;;;;13.63;2.03;;;5.10;99.90;;;;;;5055461;28;20396;-75
2024/02/23 04:27:07;;;;;;;11.73;1.88;;;5.20;99.90;;;;;;5064264;28;20562;-75
2024/02/23 04:29:33;;;;;;;10.40;2.03;;;5.10;99.90;;;;;;5050608;28;20040;-74
2024/02/23 04:32:03;;;;;;;9.32;2.50;;;5.00;99.90;;;;;;5051852;28;20392;-75
2024/02/23 04:34:29;;;;;;;13.00;2.33;;;5.00;99.90;;;;;;5049586;28;20209;-75
2024/02/23 04:36:55;;;;;;;10.55;2.40;;;5.00;99.90;;;;;;5051147;28;20509;-75
2024/02/23 04:39:21;;;;;;;9.57;2.75;;;4.90;99.90;;;;;;5060819;28;20037;-75
2024/02/23 04:41:47;;;;;;;10.25;2.17;;;4.90;99.90;;;;;;5055944;28;20033;-75
2024/02/23 04:44:13;;;;;;;9.05;2.30;;;4.90;99.90;;;;;;5054843;28;20044;-74
2024/02/23 04:46:39;;;;;;;6.57;2.30;;;4.80;99.90;;;;;;5054961;28;20623;-73
2024/02/23 04:49:05;;;;;;;13.10;3.03;;;4.90;99.90;;;;;;5058195;28;20044;-74
2024/02/23 04:51:30;;;;;;;12.45;2.58;;;4.90;99.90;;;;;;5050858;28;20105;-75
2024/02/23 04:53:56;;;;;;;12.93;3.08;;;4.90;99.90;;;;;;5045380;28;20051;-74
2024/02/23 04:56:22;;;;;;;9.32;3.25;;;4.90;99.90;;;;;;5038515;28;20055;-74
2024/02/23 04:58:48;;;;;;;14.98;4.63;;;4.90;99.90;;;;;;5068572;28;20055;-74
2024/02/23 05:01:14;;;;;;;10.85;4.40;;;4.90;99.90;;;;;;5049856;28;20040;-74
2024/02/23 05:03:39;;;;;;;10.07;4.97;;;4.90;99.90;;;;;;5053015;28;20032;-74
2024/02/23 05:06:05;;;;;;;13.55;5.95;;;4.90;99.90;;;;;;5057896;28;20134;-74
2024/02/23 05:08:31;;;;;;;14.95;6.45;;;4.90;99.90;;;;;;5056581;28;20131;-74
2024/02/23 05:10:58;;;;;;;14.85;8.10;;;4.90;99.90;;;;;;5037084;28;20130;-75
2024/02/23 05:13:24;;;;;;;14.48;8.45;;;4.90;99.90;;;;;;5057736;28;20040;-75
2024/02/23 05:15:50;;;;;;;17.20;9.27;;;5.00;99.90;;;;;;5059596;28;20039;-74
2024/02/23 05:18:15;;;;;;;14.75;9.40;;;4.90;99.90;;;;;;5045872;28;20044;-75
2024/02/23 05:20:41;;;;;;;14.93;9.77;;;4.80;99.90;;;;;;5048727;28;20339;-74
2024/02/23 05:23:07;;;;;;;16.08;9.88;;;4.90;99.90;;;;;;5062486;28;20512;-75
2024/02/23 05:25:33;;;;;;;15.15;9.95;;;4.90;99.90;;;;;;5059101;28;20051;-74
2024/02/23 05:27:59;;;;;;;20.45;10.85;;;4.90;99.90;;;;;;5055173;28;20043;-74
2024/02/23 05:30:27;;;;;;;16.30;10.52;;;4.90;99.90;;;;;;5051473;28;20061;-75
2024/02/23 05:32:52;;;;;;;14.63;10.15;;;4.90;99.90;;;;;;5057096;28;20493;-75
2024/02/23 05:35:19;;;;;;;19.33;12.20;;;4.90;99.90;;;;;;5046387;28;20048;-75
2024/02/23 05:37:45;;;;;;;16.38;10.70;;;4.90;99.90;;;;;;5047264;28;20047;-74
2024/02/23 05:40:12;;;;;;;15.48;11.50;;;5.00;99.90;;;;;;5043839;28;20047;-74
2024/02/23 05:42:38;;;;;;;18.45;11.75;;;5.00;99.90;;;;;;5046843;28;20051;-74
2024/02/23 05:45:10;;;;;;;17.25;11.18;;;5.00;99.90;;;;;;5045177;28;20043;-75
2024/02/23 05:47:37;;;;;;;16.42;11.05;;;4.90;99.90;;;;;;5047012;28;20040;-74
2024/02/23 05:50:03;;;;;;;19.05;10.90;;;5.00;99.90;;;;;;5056274;28;20603;-74
2024/02/23 05:52:32;;;;;;;16.60;10.27;;;4.90;99.90;;;;;;5060320;28;20046;-75
2024/02/23 05:54:59;;;;;;;16.73;10.52;;;5.00;99.90;;;;;;5040912;28;20098;-75
2024/02/23 05:57:26;;;;;;;19.50;10.13;;;4.90;99.90;;;;;;5052022;28;20131;-75
2024/02/23 05:59:53;;;;;;;20.00;10.10;;;5.00;99.90;;;;;;5049616;28;20641;-75
2024/02/23 06:02:18;;;;;;;13.02;10.05;;;4.90;99.90;;;;;;5058215;28;20052;-75
2024/02/23 06:04:45;;;;;;;17.15;8.55;;;4.90;99.90;;;;;;5063736;28;20056;-75
2024/02/23 06:07:11;;;;;;;16.80;9.20;;;4.90;99.90;;;;;;5057511;28;20088;-75
2024/02/23 06:09:37;;;;;;;14.88;9.15;;;4.90;99.90;;;;;;5050681;28;20071;-74
2024/02/23 06:12:02;;;;;;;17.35;9.60;;;4.90;99.90;;;;;;5050343;28;20400;-75
2024/02/23 06:14:28;;;;;;;14.43;9.38;;;4.90;99.90;;;;;;5044039;28;20053;-75
2024/02/23 06:16:54;;;;;;;16.40;9.90;;;4.90;99.90;;;;;;5053884;28;20052;-75
2024/02/23 06:19:20;;;;;;;16.58;9.25;;;4.90;99.90;;;;;;5042713;28;20572;-75
2024/02/23 06:21:49;;;;;;;13.73;9.70;;;4.90;99.90;;;;;;5065043;28;20058;-75
2024/02/23 06:24:15;;;;;;;15.05;9.48;;;4.90;99.90;;;;;;5052304;28;20040;-75
2024/02/23 06:26:41;;;;;;;17.60;9.65;;;4.90;99.90;;;;;;5067899;28;20070;-76
2024/02/23 06:29:11;;;;;;;14.88;9.13;;;4.90;99.90;;;;;;5051136;28;20068;-75
2024/02/23 06:31:38;;;;;;;16.33;9.73;;;4.90;99.90;;;;;;5032411;28;20070;-75
2024/02/23 06:34:04;;;;;;;17.58;9.70;;;4.90;99.90;;;;;;5056084;28;20045;-75
2024/02/23 06:36:30;;;;;;;13.88;8.63;;;4.90;99.90;;;;;;5053616;28;20040;-75
2024/02/23 06:38:56;;;;;;;16.73;9.43;;;4.90;99.90;;;;;;5061000;28;20048;-75
2024/02/23 06:41:22;;;;;;;13.80;9.02;;;4.90;99.90;;;;;;5057886;28;20049;-76
2024/02/23 06:43:48;;;;;;;13.48;9.30;;;5.00;99.90;;;;;;5057992;28;20040;-75
2024/02/23 06:46:13;;;;;;;13.88;9.00;;;5.00;99.90;;;;;;5053370;28;20528;-75
2024/02/23 06:48:39;;;;;;;17.00;9.45;;;5.00;99.90;;;;;;5045984;28;20040;-75
2024/02/23 06:51:09;;;;;;;15.13;8.95;;;4.90;99.90;;;;;;5056418;28;20045;-75
2024/02/23 06:53:35;;;;;;;14.23;8.77;;;5.00;99.90;;;;;;5046810;28;20481;-74
2024/02/23 06:56:04;;;;;;;15.13;9.05;;;4.90;99.90;;;;;;5057687;28;20037;-75
2024/02/23 06:58:30;;;;;;;14.02;9.15;;;5.00;99.90;;;;;;5038264;28;20058;-75
2024/02/23 07:00:55;;;;;;;15.75;8.75;;;5.00;99.90;;;;;;5048353;28;20040;-75
2024/02/23 07:03:21;;;;;;;11.52;8.95;;;5.00;99.90;;;;;;5058048;28;20555;-75
2024/02/23 07:05:50;;;;;;;15.73;9.13;;;5.00;99.90;;;;;;5054828;28;20040;-75
2024/02/23 07:08:16;;;;;;;15.80;8.48;;;5.00;99.90;;;;;;5071408;28;20043;-75
2024/02/23 07:10:42;;;;;;;13.75;9.07;;;5.10;99.90;;;;;;5051159;28;20048;-74
2024/02/23 07:13:08;;;;;;;18.88;9.40;;;5.10;99.90;;;;;;5068848;28;20059;-75
2024/02/23 07:15:37;;;;;;;14.60;8.05;;;5.10;99.90;;;;;;5075053;28;20499;-75
2024/02/23 07:18:03;;;;;;;13.32;7.35;;;5.10;99.90;;;;;;5042147;28;20378;-75
2024/02/23 07:20:29;;;;;;;14.65;7.95;;;5.10;99.90;;;;;;5041653;28;20039;-75
2024/02/23 07:22:55;;;;;;;12.13;8.18;;;5.20;99.90;;;;;;5061907;28;20420;-75
2024/02/23 07:25:21;;;;;;;12.85;8.27;;;5.10;99.90;;;;;;5059973;28;20052;-76
2024/02/23 07:27:48;;;;;;;12.02;8.15;;;5.10;99.90;;;;;;5072654;28;20036;-76
2024/02/23 07:30:16;;;;;;;14.55;7.53;;;5.20;99.90;;;;;;5061619;28;20342;-75
2024/02/23 07:32:42;;;;;;;11.48;7.47;;;5.20;99.90;;;;;;5039757;28;20036;-74
2024/02/23 07:35:08;;;;;;;13.55;7.57;;;5.30;99.90;;;;;;5063431;28;20413;-75
2024/02/23 07:37:34;;;;;;;10.82;7.20;;;5.30;99.90;;;;;;5063375;28;20511;-74
2024/02/23 07:39:59;;;;;;;14.20;6.97;;;5.40;99.90;;;;;;5069508;28;20032;-75
2024/02/23 07:42:25;;;;;;;13.40;7.13;;;5.40;99.90;;;;;;5048222;28;20068;-75
2024/02/23 07:44:51;;;;;;;13.15;6.93;;;5.40;99.90;;;;;;5037746;28;20038;-75
2024/02/23 07:47:17;;;;;;;12.10;6.55;;;5.40;99.90;;;;;;5054823;28;20048;-74
2024/02/23 07:49:43;;;;;;;9.43;5.35;;;5.40;99.90;;;;;;5054206;28;20037;-74
2024/02/23 07:52:09;;;;;;;9.80;5.63;;;5.50;99.90;;;;;;5047831;28;20040;-75
2024/02/23 07:54:34;;;;;;;11.43;5.68;;;5.50;99.90;;;;;;5058960;28;20075;-74
2024/02/23 07:57:00;;;;;;;10.82;4.90;;;5.50;99.90;;;;;;5063322;28;20101;-74
2024/02/23 07:59:29;;;;;;;9.80;4.65;;;5.60;99.90;;;;;;5059882;28;20101;-75
2024/02/23 08:01:55;;;;;;;8.68;4.03;;;5.60;99.90;;;;;;5056893;28;20060;-74
2024/02/23 08:04:22;;;;;;;7.55;3.92;;;5.60;99.90;;;;;;5065908;28;20109;-75
2024/02/23 08:06:48;;;;;;;7.18;3.33;;;5.60;99.90;;;;;;5038127;28;20047;-74
2024/02/23 08:09:14;;;;;;;10.60;4.10;;;5.70;99.90;;;;;;5051978;28;20044;-74
2024/02/23 08:11:40;;;;;;;8.30;3.40;;;5.70;99.90;;;;;;5051655;28;20040;-75
2024/02/23 08:14:06;;;;;;;8.40;3.58;;;5.70;99.90;;;;;;5063681;28;20044;-74
2024/02/23 08:16:32;;;;;;;11.90;3.45;;;5.70;99.90;;;;;;5066198;28;20424;-74
2024/02/23 08:18:58;;;;;;;10.93;3.40;;;5.70;99.90;;;;;;5044450;28;20071;-75
2024/02/23 08:21:26;;;;;;;8.80;2.80;;;5.80;99.90;;;;;;5058950;28;20087;-74
2024/02/23 08:23:52;;;;;;;7.80;3.03;;;5.80;99.90;;;;;;5061051;28;20203;-75
2024/02/23 08:26:18;;;;;;;6.15;2.58;;;5.80;99.90;;;;;;5065250;28;20044;-75
2024/02/23 08:28:44;;;;;;;8.50;3.03;;;5.80;99.90;;;;;;5047465;28;20102;-75
2024/02/23 08:31:10;;;;;;;12.48;2.67;;;5.80;99.90;;;;;;5063114;28;20072;-74
2024/02/23 08:33:36;;;;;;;8.38;2.80;;;5.90;99.90;;;;;;5047095;28;20044;-76
2024/02/23 08:36:05;;;;;;;6.57;2.95;;;5.80;99.90;;;;;;5069366;28;20496;-74
2024/02/23 08:38:32;;;;;;;6.82;2.60;;;5.90;99.90;;;;;;5049316;28;20044;-74
2024/02/23 08:40:58;;;;;;;8.15;3.13;;;5.90;99.90;;;;;;5051229;28;20106;-74
2024/02/23 08:43:24;;;;;;;5.38;2.90;;;5.90;99.90;;;;;;5071507;28;20056;-74
2024/02/23 08:45:50;;;;;;;9.55;2.83;;;5.90;99.90;;;;;;5055698;28;20044;-73
2024/02/23 08:48:16;;;;;;;10.52;3.38;;;5.90;99.90;;;;;;5048388;28;20048;-73
2024/02/23 08:50:42;;;;;;;7.50;2.90;;;6.00;99.90;;;;;;5047684;28;20077;-73
2024/02/23 08:53:07;;;;;;;7.32;3.15;;;6.00;99.90;;;;;;5063301;28;20046;-74
2024/02/23 08:55:33;;;;;;;6.82;2.72;;;6.00;99.90;;;;;;5059201;28;20462;-74
2024/02/23 08:57:59;;;;;;;12.27;2.95;;;6.10;99.90;;;;;;5047102;28;20032;-73
2024/02/23 09:00:25;;;;;;;9.85;2.78;;;6.20;99.90;;;;;;5065877;28;20051;-74
2024/02/23 09:02:50;;;;;;;11.38;2.47;;;6.30;99.90;;;;;;5057511;28;20040;-73
2024/02/23 09:05:16;;;;;;;6.75;2.42;;;6.30;99.90;;;;;;5072510;28;20055;-74
2024/02/23 09:07:42;;;;;;;8.73;2.75;;;6.40;99.90;;;;;;5065161;28;20408;-74
2024/02/23 09:10:08;;;;;;;5.75;2.30;;;6.40;99.90;;;;;;5053380;28;20040;-73
2024/02/23 09:12:38;;;;;;;6.22;2.35;;;6.50;99.90;;;;;;5045070;28;20040;-74
2024/02/23 09:15:05;;;;;;;7.28;2.17;;;6.60;99.90;;;;;;5045129;28;20040;-74
2024/02/23 09:17:31;;;;;;;6.20;2.28;;;6.60;99.90;;;;;;5042796;28;20064;-74
2024/02/23 09:19:56;;;;;;;8.05;1.98;;;6.70;99.90;;;;;;5044410;28;20041;-74
2024/02/23 09:22:22;;;;;;;7.18;2.20;;;6.80;99.90;;;;;;5041877;28;20051;-74
2024/02/23 09:24:48;;;;;;;8.25;2.10;;;6.90;99.90;;;;;;5059995;28;20036;-74
2024/02/23 09:27:14;;;;;;;5.93;2.28;;;6.90;99.90;;;;;;5052915;28;20574;-74
2024/02/23 09:29:41;;;;;;;5.68;1.90;;;7.00;99.90;;;;;;5041965;28;20048;-73
2024/02/23 09:32:07;;;;;;;6.32;1.70;;;7.00;99.90;;;;;;5048701;28;20040;-73
2024/02/23 09:34:33;;;;;;;5.82;1.73;;;7.00;99.90;;;;;;5048271;28;20519;-74
2024/02/23 09:36:58;;;;;;;8.52;2.08;;;7.00;99.90;;;;;;5042574;28;20040;-74
2024/02/23 09:39:26;;;;;;;6.70;1.80;;;7.00;99.90;;;;;;5055491;28;20077;-73
2024/02/23 09:41:54;;;;;;;8.48;1.80;;;7.00;99.90;;;;;;5046965;28;20693;-74
2024/02/23 09:44:23;;;;;;;8.60;2.20;;;7.00;99.90;;;;;;5062580;28;20484;-75
2024/02/23 09:46:49;;;;;;;8.77;2.00;;;7.00;99.90;;;;;;5047374;28;20031;-74
2024/02/23 09:49:16;;;;;;;8.60;2.10;;;7.00;99.90;;;;;;5061708;28;20393;-74
2024/02/23 09:51:42;;;;;;;8.15;2.05;;;7.00;99.90;;;;;;5045652;28;20044;-74
2024/02/23 09:54:08;;;;;;;7.78;1.70;;;7.00;99.90;;;;;;5062016;28;20039;-74
2024/02/23 09:56:36;;;;;;;6.55;2.03;;;7.00;99.90;;;;;;5052360;28;20550;-74
2024/02/23 09:59:03;;;;;;;8.65;2.22;;;7.10;99.90;;;;;;5034782;28;20043;-74
2024/02/23 10:01:31;;;;;;;6.13;2.05;;;7.20;99.90;;;;;;5053185;28;20052;-73
2024/02/23 10:03:58;;;;;;;7.30;1.75;;;7.20;99.90;;;;;;5037884;28;20048;-74
2024/02/23 10:06:27;;;;;;;8.05;1.50;;;7.30;99.90;;;;;;5057816;28;20056;-74
2024/02/23 10:08:53;;;;;;;8.00;1.88;;;7.40;99.90;;;;;;5057700;28;20044;-74
2024/02/23 10:11:26;;;;;;;7.13;1.90;;;7.40;99.90;;;;;;5037043;28;20044;-74
2024/02/23 10:13:55;;;;;;;6.82;2.15;;;7.40;99.90;;;;;;5054374;28;20504;-74
2024/02/23 10:16:22;;;;;;;6.50;2.33;;;7.50;99.90;;;;;;5056129;28;20673;-74
2024/02/23 10:18:48;;;;;;;7.53;1.67;;;7.50;99.90;;;;;;5056178;28;20070;-74
2024/02/23 10:21:17;;;;;;;8.30;2.13;;;7.50;99.90;;;;;;5047279;28;20043;-74
2024/02/23 10:23:45;;;;;;;6.78;1.90;;;7.60;99.90;;;;;;5049480;28;20184;-74
2024/02/23 10:26:11;;;;;;;7.05;1.40;;;7.50;99.90;;;;;;5060885;28;20048;-74
2024/02/23 10:28:40;;;;;;;8.57;1.85;;;7.50;99.90;;;;;;5055670;28;20047;-73
2024/02/23 10:31:06;;;;;;;6.78;1.98;;;7.40;99.90;;;;;;5040172;28;20040;-74
2024/02/23 10:33:35;;;;;;;9.27;1.80;;;7.30;99.90;;;;;;5043284;28;20161;-74
2024/02/23 10:36:04;;;;;;;8.43;2.25;;;7.30;99.90;;;;;;5052122;28;20037;-74
2024/02/23 10:38:32;;;;;;;6.40;1.60;;;7.20;99.90;;;;;;5038999;28;20101;-74
2024/02/23 10:40:58;;;;;;;7.97;1.80;;;7.20;99.90;;;;;;5043871;28;20043;-74
2024/02/23 10:43:41;;;;;;;7.47;1.75;;;7.20;99.90;;;;;;5064664;28;20052;-74
2024/02/23 10:46:12;;;;;;;8.98;2.25;;;7.20;99.90;;;;;;5052691;28;20056;-74
2024/02/23 10:48:40;;;;;;;7.60;2.10;;;7.10;99.90;;;;;;5057855;28;20565;-74
2024/02/23 10:51:12;;;;;;;9.35;2.05;;;7.10;99.90;;;;;;5066238;28;20044;-74
2024/02/23 10:53:40;;;;;;;7.13;1.92;;;7.10;99.90;;;;;;5040674;28;20039;-74
2024/02/23 10:56:07;;;;;;;8.55;2.05;;;7.10;99.90;;;;;;5050761;28;20048;-73
2024/02/23 10:58:33;;;;;;;6.03;1.70;;;7.10;99.90;;;;;;5069161;28;20032;-74
2024/02/23 11:01:07;;;;;;;8.23;2.17;;;7.10;99.90;;;;;;5067763;28;20048;-74
2024/02/23 11:03:34;;;;;;;8.07;1.67;;;7.20;99.90;;;;;;5042247;28;20131;-74
2024/02/23 11:06:00;;;;;;;7.85;2.10;;;7.20;99.90;;;;;;5041716;28;20070;-74
2024/02/23 11:08:30;;;;;;;6.10;2.17;;;7.20;99.90;;;;;;5056369;28;20048;-75
2024/02/23 11:10:56;;;;;;;12.43;2.35;;;7.30;99.90;;;;;;5048658;28;20357;-74
2024/02/23 11:13:34;;;;;;;5.13;1.65;;;7.20;99.90;;;;;;5051728;28;20383;-75
2024/02/23 11:16:07;;;;;;;7.97;1.80;;;7.20;99.90;;;;;;5058295;28;20068;-75
2024/02/23 11:18:39;;;;;;;9.73;2.00;;;7.20;99.90;;;;;;5040888;28;20037;-74
2024/02/23 11:21:08;;;;;;;6.15;1.88;;;7.30;99.90;;;;;;5055175;28;20044;-74
2024/02/23 11:23:42;;;;;;;7.60;2.22;;;7.30;99.90;;;;;;5065211;28;20059;-74
2024/02/23 11:26:12;;;;;;;5.95;1.63;;;7.40;99.90;;;;;;5070366;28;20041;-74
2024/02/23 11:28:53;;;;;;;4.45;1.77;;;7.50;99.90;;;;;;5067902;28;20048;-73
2024/02/23 11:31:23;;;;;;;7.85;1.55;;;7.50;99.90;;;;;;5046010;28;20044;-74
2024/02/23 11:33:50;;;;;;;7.60;2.13;;;7.40;99.90;;;;;;5039568;28;20039;-74
2024/02/23 11:36:30;;;;;;;6.30;1.50;;;7.40;99.90;;;;;;5044582;28;20144;-74
2024/02/23 11:38:58;;;;;;;5.95;1.85;;;7.40;99.90;;;;;;5057925;28;20428;-74
2024/02/23 11:41:25;;;;;;;7.28;1.80;;;7.30;99.90;;;;;;5058041;28;20047;-74
2024/02/23 11:43:51;;;;;;;5.45;1.40;;;7.30;99.90;;;;;;5080729;28;20043;-73
2024/02/23 11:46:18;;;;;;;4.43;1.58;;;7.30;99.90;;;;;;5053759;28;20071;-73
2024/02/23 11:48:46;;;;;;;6.93;1.88;;;7.20;99.90;;;;;;5045672;28;20044;-74
2024/02/23 11:51:15;;;;;;;4.35;1.40;;;7.20;99.90;;;;;;5067176;28;20136;-74
2024/02/23 11:53:41;;;;;;;6.80;1.77;;;7.20;99.90;;;;;;5058341;28;20041;-74
2024/02/23 11:56:08;;;;;;;5.15;1.50;;;7.20;99.90;;;;;;5036452;28;20059;-74
2024/02/23 11:58:34;;;;;;;6.53;1.80;;;7.10;99.90;;;;;;5047252;28;20041;-73
2024/02/23 12:01:04;;;;;;;5.72;1.77;;;7.20;99.90;;;;;;5042706;28;20044;-76
2024/02/23 12:03:30;;;;;;;5.22;2.05;;;7.10;99.90;;;;;;5048568;28;20044;-75
2024/02/23 12:06:07;;;;;;;6.10;1.88;;;7.10;99.90;;;;;;5055734;28;20040;-75
2024/02/23 12:08:39;;;;;;;5.70;1.73;;;7.20;99.90;;;;;;5040887;28;20049;-74
2024/02/23 12:11:08;;;;;;;6.55;1.60;;;7.20;99.90;;;;;;5049967;28;20093;-73
2024/02/23 12:13:34;;;;;;;5.47;1.55;;;7.10;99.90;;;;;;5049063;28;20082;-75
2024/02/23 12:16:00;;;;;;;7.72;1.73;;;7.20;99.90;;;;;;5055171;28;20029;-74
2024/02/23 12:18:26;;;;;;;5.70;1.83;;;7.20;99.90;;;;;;5070782;28;20048;-75
2024/02/23 12:20:53;;;;;;;8.20;1.73;;;7.30;99.90;;;;;;5056081;28;20104;-75
2024/02/23 12:23:19;;;;;;;9.00;2.17;;;7.20;99.90;;;;;;5044871;28;20048;-75
2024/02/23 12:25:56;;;;;;;7.28;1.60;;;7.30;99.90;;;;;;5049590;28;20447;-74
2024/02/23 12:28:22;;;;;;;5.85;2.03;;;7.20;99.90;;;;;;5070179;28;20067;-75
2024/02/23 12:31:04;;;;;;;6.07;1.80;;;7.20;99.90;;;;;;5048291;28;20052;-75
2024/02/23 12:33:34;;;;;;;5.55;2.00;;;7.20;99.90;;;;;;5044601;28;20512;-75
2024/02/23 12:36:00;;;;;;;6.40;1.75;;;7.20;99.90;;;;;;5047080;28;20048;-75
2024/02/23 12:38:26;;;;;;;4.97;1.55;;;7.20;99.90;;;;;;5051595;28;20047;-74
2024/02/23 12:40:52;;;;;;;6.95;1.75;;;7.20;99.90;;;;;;5047319;28;20059;-74
2024/02/23 12:43:18;;;;;;;4.07;1.50;;;7.20;99.90;;;;;;5035677;28;20052;-74
2024/02/23 12:45:45;;;;;;;6.57;1.52;;;7.20;99.90;;;;;;5039673;28;20040;-75
2024/02/23 12:48:11;;;;;;;6.93;1.73;;;7.20;99.90;;;;;;5041230;28;20033;-75
2024/02/23 12:50:37;;;;;;;7.28;1.88;;;7.20;99.90;;;;;;5042425;28;20059;-75